Aydin, Turkey
Current Conditions -  °F | °C
As of 4:50 PM on Thursday 30 Oct 2014 (Local Time) from LTFE Reporting Station
Scattered Clouds Scattered Clouds  
Wind Chill: 21°   Ceiling: Unl
Heat Index: 21°   Visibility: 6mi
Dew Point: 13°   Wind: 16mph
Humidity: 60%   Direction: 260°W
Pressure: 29.91"   Gusts: NA
Location:  37.86°N, 27.84°E
Report Text: LTFE 301350Z 26014KT 9999 SCT025TCU 21/13 Q1013 NOSIG
Loading
Personal Weather Stations






























Interactive Weather Map
Tropical Storm Tracking
New forecast layout! Learn more

10-Day Weather Forecast

Advertisements
Track Severe Weather on mobile